sensor_id;sensor_type;location;lat;lon;timestamp;pressure;altitude;pressure_sealevel;temperature;humidity
1776;BME280;885;42.626;23.200;2023-04-09T00:01:32;166439.41;;;4.77;100.00
1776;BME280;885;42.626;23.200;2023-04-09T00:03:59;166442.13;;;4.78;100.00
1776;BME280;885;42.626;23.200;2023-04-09T00:06:26;166451.78;;;4.81;100.00
1776;BME280;885;42.626;23.200;2023-04-09T00:08:54;166465.47;;;4.87;100.00
1776;BME280;885;42.626;23.200;2023-04-09T00:11:21;166457.25;;;4.83;100.00
1776;BME280;885;42.626;23.200;2023-04-09T00:13:47;166470.97;;;4.89;100.00
1776;BME280;885;42.626;23.200;2023-04-09T00:16:14;166464.09;;;4.86;100.00
1776;BME280;885;42.626;23.200;2023-04-09T00:18:41;166480.59;;;4.92;100.00
1776;BME280;885;42.626;23.200;2023-04-09T00:21:08;166416.06;;;4.68;100.00
1776;BME280;885;42.626;23.200;2023-04-09T00:23:34;166418.78;;;4.69;100.00
1776;BME280;885;42.626;23.200;2023-04-09T00:26:03;166418.78;;;4.69;100.00
1776;BME280;885;42.626;23.200;2023-04-09T00:28:30;166432.53;;;4.74;100.00
1776;BME280;885;42.626;23.200;2023-04-09T00:30:57;166453.09;;;4.82;100.00
1776;BME280;885;42.626;23.200;2023-04-09T00:33:23;166498.41;;;4.99;100.00
1776;BME280;885;42.626;23.200;2023-04-09T00:35:50;166506.66;;;5.02;100.00
1776;BME280;885;42.626;23.200;2023-04-09T00:38:17;166531.41;;;5.11;100.00
1776;BME280;885;42.626;23.200;2023-04-09T00:40:47;166536.91;;;5.13;100.00
1776;BME280;885;42.626;23.200;2023-04-09T00:43:15;166539.63;;;5.14;100.00
1776;BME280;885;42.626;23.200;2023-04-09T00:45:42;166538.22;;;5.13;100.00
1776;BME280;885;42.626;23.200;2023-04-09T00:48:10;166542.38;;;5.15;100.00
1776;BME280;885;42.626;23.200;2023-04-09T00:50:37;166567.06;;;5.24;100.00
1776;BME280;885;42.626;23.200;2023-04-09T00:53:04;166584.94;;;5.30;100.00
1776;BME280;885;42.626;23.200;2023-04-09T00:55:31;166619.28;;;5.43;100.00
1776;BME280;885;42.626;23.200;2023-04-09T00:57:58;166633.03;;;5.48;100.00
1776;BME280;885;42.626;23.200;2023-04-09T01:00:27;166649.50;;;5.54;100.00
1776;BME280;885;42.626;23.200;2023-04-09T01:02:55;166645.41;;;5.52;100.00
1776;BME280;885;42.626;23.200;2023-04-09T01:05:23;166652.28;;;5.55;100.00
1776;BME280;885;42.626;23.200;2023-04-09T01:08:00;166646.75;;;5.53;100.00
1776;BME280;885;42.626;23.200;2023-04-09T01:10:34;166649.50;;;5.54;100.00
1776;BME280;885;42.626;23.200;2023-04-09T01:13:07;166644.03;;;5.52;100.00
1776;BME280;885;42.626;23.200;2023-04-09T01:15:43;166646.75;;;5.53;100.00
1776;BME280;885;42.626;23.200;2023-04-09T01:18:19;166646.75;;;5.53;100.00
1776;BME280;885;42.626;23.200;2023-04-09T01:20:51;166649.50;;;5.54;100.00
1776;BME280;885;42.626;23.200;2023-04-09T01:23:30;166655.00;;;5.56;100.00
1776;BME280;885;42.626;23.200;2023-04-09T01:26:02;166645.41;;;5.52;100.00
1776;BME280;885;42.626;23.200;2023-04-09T01:28:32;166660.50;;;5.58;100.00
1776;BME280;885;42.626;23.200;2023-04-09T01:31:06;166646.75;;;5.53;100.00
1776;BME280;885;42.626;23.200;2023-04-09T01:33:36;166661.88;;;5.58;100.00
1776;BME280;885;42.626;23.200;2023-04-09T01:36:04;166663.28;;;5.59;100.00
1776;BME280;885;42.626;23.200;2023-04-09T01:38:32;166676.97;;;5.64;100.00
1776;BME280;885;42.626;23.200;2023-04-09T01:41:03;166668.75;;;5.61;100.00
1776;BME280;885;42.626;23.200;2023-04-09T01:43:32;166672.88;;;5.62;100.00
1776;BME280;885;42.626;23.200;2023-04-09T01:46:00;166682.47;;;5.66;100.00
1776;BME280;885;42.626;23.200;2023-04-09T01:48:28;166690.75;;;5.69;100.00
1776;BME280;885;42.626;23.200;2023-04-09T01:50:55;166678.38;;;5.64;100.00
1776;BME280;885;42.626;23.200;2023-04-09T01:53:23;166663.28;;;5.59;100.00
1776;BME280;885;42.626;23.200;2023-04-09T01:55:52;166650.91;;;5.54;100.00
1776;BME280;885;42.626;23.200;2023-04-09T01:58:19;166648.13;;;5.53;100.00
1776;BME280;885;42.626;23.200;2023-04-09T02:00:48;166648.13;;;5.53;100.00
1776;BME280;885;42.626;23.200;2023-04-09T02:03:17;166646.75;;;5.53;100.00
1776;BME280;885;42.626;23.200;2023-04-09T02:05:52;166646.75;;;5.53;100.00
1776;BME280;885;42.626;23.200;2023-04-09T02:08:22;166622.03;;;5.44;100.00
1776;BME280;885;42.626;23.200;2023-04-09T02:10:53;166613.78;;;5.41;100.00
1776;BME280;885;42.626;23.200;2023-04-09T02:13:22;166572.56;;;5.26;100.00
1776;BME280;885;42.626;23.200;2023-04-09T02:15:51;166561.59;;;5.22;100.00
1776;BME280;885;42.626;23.200;2023-04-09T02:18:23;166564.34;;;5.23;100.00
1776;BME280;885;42.626;23.200;2023-04-09T02:20:51;166536.91;;;5.13;100.00
1776;BME280;885;42.626;23.200;2023-04-09T02:23:18;166524.53;;;5.08;100.00
1776;BME280;885;42.626;23.200;2023-04-09T02:25:45;166477.84;;;4.91;100.00
1776;BME280;885;42.626;23.200;2023-04-09T02:28:12;166442.13;;;4.78;100.00
1776;BME280;885;42.626;23.200;2023-04-09T02:30:39;166424.28;;;4.71;100.00
1776;BME280;885;42.626;23.200;2023-04-09T02:33:07;166388.63;;;4.58;100.00
1776;BME280;885;42.626;23.200;2023-04-09T02:35:33;166398.22;;;4.62;100.00
1776;BME280;885;42.626;23.200;2023-04-09T02:38:00;166399.59;;;4.62;100.00
1776;BME280;885;42.626;23.200;2023-04-09T02:40:27;166373.47;;;4.53;100.00
1776;BME280;885;42.626;23.200;2023-04-09T02:42:54;166377.63;;;4.54;100.00
1776;BME280;885;42.626;23.200;2023-04-09T02:45:21;166359.78;;;4.48;100.00
1776;BME280;885;42.626;23.200;2023-04-09T02:47:47;166354.31;;;4.46;100.00
1776;BME280;885;42.626;23.200;2023-04-09T02:50:16;166319.97;;;4.33;100.00
1776;BME280;885;42.626;23.200;2023-04-09T02:52:45;166317.22;;;4.32;100.00
1776;BME280;885;42.626;23.200;2023-04-09T02:55:12;166303.53;;;4.27;100.00
1776;BME280;885;42.626;23.200;2023-04-09T02:57:39;166314.50;;;4.31;100.00
1776;BME280;885;42.626;23.200;2023-04-09T03:00:07;166306.25;;;4.28;100.00
1776;BME280;885;42.626;23.200;2023-04-09T03:02:34;166278.81;;;4.18;100.00
1776;BME280;885;42.626;23.200;2023-04-09T03:05:01;166281.53;;;4.19;100.00
1776;BME280;885;42.626;23.200;2023-04-09T03:07:30;166269.22;;;4.15;100.00
1776;BME280;885;42.626;23.200;2023-04-09T03:09:57;166270.53;;;4.15;100.00
1776;BME280;885;42.626;23.200;2023-04-09T03:12:24;166265.06;;;4.13;100.00
1776;BME280;885;42.626;23.200;2023-04-09T03:14:51;166243.13;;;4.05;100.00
1776;BME280;885;42.626;23.200;2023-04-09T03:17:17;166241.72;;;4.04;100.00
1776;BME280;885;42.626;23.200;2023-04-09T03:19:44;166230.75;;;4.00;100.00
1776;BME280;885;42.626;23.200;2023-04-09T03:22:11;166230.75;;;4.00;100.00
1776;BME280;885;42.626;23.200;2023-04-09T03:24:39;166248.59;;;4.07;100.00
1776;BME280;885;42.626;23.200;2023-04-09T03:27:06;166276.03;;;4.17;100.00
1776;BME280;885;42.626;23.200;2023-04-09T03:29:32;166262.34;;;4.12;100.00
1776;BME280;885;42.626;23.200;2023-04-09T03:31:59;166248.59;;;4.07;100.00
1776;BME280;885;42.626;23.200;2023-04-09T03:34:26;166215.69;;;3.95;100.00
1776;BME280;885;42.626;23.200;2023-04-09T03:36:53;166204.72;;;3.91;100.00
1776;BME280;885;42.626;23.200;2023-04-09T03:39:19;166199.22;;;3.89;100.00
1776;BME280;885;42.626;23.200;2023-04-09T03:41:47;166207.44;;;3.92;100.00
1776;BME280;885;42.626;23.200;2023-04-09T03:44:14;166219.78;;;3.96;100.00
1776;BME280;885;42.626;23.200;2023-04-09T03:46:41;166212.91;;;3.94;100.00
1776;BME280;885;42.626;23.200;2023-04-09T03:49:08;166208.81;;;3.92;100.00
1776;BME280;885;42.626;23.200;2023-04-09T03:51:34;166196.47;;;3.88;100.00
1776;BME280;885;42.626;23.200;2023-04-09T03:54:02;166180.00;;;3.82;100.00
1776;BME280;885;42.626;23.200;2023-04-09T03:56:28;166180.00;;;3.82;100.00
1776;BME280;885;42.626;23.200;2023-04-09T03:58:56;166166.31;;;3.77;100.00
1776;BME280;885;42.626;23.200;2023-04-09T04:01:23;166170.41;;;3.78;100.00
1776;BME280;885;42.626;23.200;2023-04-09T04:03:50;166182.78;;;3.83;100.00
1776;BME280;885;42.626;23.200;2023-04-09T04:06:17;166171.78;;;3.79;100.00
1776;BME280;885;42.626;23.200;2023-04-09T04:08:43;166192.34;;;3.86;100.00
1776;BME280;885;42.626;23.200;2023-04-09T04:11:11;166193.75;;;3.87;100.00
1776;BME280;885;42.626;23.200;2023-04-09T04:13:37;166185.47;;;3.84;100.00
1776;BME280;885;42.626;23.200;2023-04-09T04:16:08;166188.25;;;3.85;100.00
1776;BME280;885;42.626;23.200;2023-04-09T04:18:35;166197.84;;;3.88;100.00
1776;BME280;885;42.626;23.200;2023-04-09T04:21:02;166201.94;;;3.90;100.00
1776;BME280;885;42.626;23.200;2023-04-09T04:23:28;166199.22;;;3.89;100.00
1776;BME280;885;42.626;23.200;2023-04-09T04:25:55;166228.03;;;3.99;100.00
1776;BME280;885;42.626;23.200;2023-04-09T04:28:22;166243.13;;;4.05;100.00
1776;BME280;885;42.626;23.200;2023-04-09T04:30:49;166263.72;;;4.13;100.00
1776;BME280;885;42.626;23.200;2023-04-09T04:33:17;166255.47;;;4.10;100.00
1776;BME280;885;42.626;23.200;2023-04-09T04:35:44;166273.31;;;4.16;100.00
1776;BME280;885;42.626;23.200;2023-04-09T04:38:10;166281.53;;;4.19;100.00
1776;BME280;885;42.626;23.200;2023-04-09T04:40:37;166313.13;;;4.31;100.00
1776;BME280;885;42.626;23.200;2023-04-09T04:43:04;166350.16;;;4.44;100.00
1776;BME280;885;42.626;23.200;2023-04-09T04:45:31;166381.75;;;4.56;100.00
1776;BME280;885;42.626;23.200;2023-04-09T04:47:58;166378.97;;;4.55;100.00
1776;BME280;885;42.626;23.200;2023-04-09T04:50:26;166406.47;;;4.65;100.00
1776;BME280;885;42.626;23.200;2023-04-09T04:52:53;166436.63;;;4.76;100.00
1776;BME280;885;42.626;23.200;2023-04-09T04:55:19;166472.34;;;4.89;100.00
1776;BME280;885;42.626;23.200;2023-04-09T04:57:46;166484.72;;;4.94;100.00
1776;BME280;885;42.626;23.200;2023-04-09T05:00:13;166520.44;;;5.07;100.00
1776;BME280;885;42.626;23.200;2023-04-09T05:02:40;166534.13;;;5.12;100.00
1776;BME280;885;42.626;23.200;2023-04-09T05:05:07;166556.09;;;5.20;100.00
1776;BME280;885;42.626;23.200;2023-04-09T05:07:35;166586.31;;;5.31;100.00
1776;BME280;885;42.626;23.200;2023-04-09T05:10:02;166573.94;;;5.26;100.00
1776;BME280;885;42.626;23.200;2023-04-09T05:12:32;166510.78;;;5.03;100.00
1776;BME280;885;42.626;23.200;2023-04-09T05:14:59;166535.50;;;5.12;100.00
1776;BME280;885;42.626;23.200;2023-04-09T05:17:26;166575.34;;;5.27;100.00
1776;BME280;885;42.626;23.200;2023-04-09T05:19:53;166623.44;;;5.44;100.00
1776;BME280;885;42.626;23.200;2023-04-09T05:22:22;166628.94;;;5.46;100.00
1776;BME280;885;42.626;23.200;2023-04-09T05:24:50;166553.38;;;5.19;100.00
1776;BME280;885;42.626;23.200;2023-04-09T05:27:18;166580.84;;;5.29;100.00
1776;BME280;885;42.626;23.200;2023-04-09T05:29:46;166613.78;;;5.41;100.00
1776;BME280;885;42.626;23.200;2023-04-09T05:32:13;166666.00;;;5.60;100.00
1776;BME280;885;42.626;23.200;2023-04-09T05:34:40;166718.22;;;5.79;100.00
1776;BME280;885;42.626;23.200;2023-04-09T05:37:07;166698.94;;;5.72;100.00
1776;BME280;885;42.626;23.200;2023-04-09T05:39:34;166650.91;;;5.54;100.00
1776;BME280;885;42.626;23.200;2023-04-09T05:42:02;166624.78;;;5.45;100.00
1776;BME280;885;42.626;23.200;2023-04-09T05:44:29;166617.94;;;5.42;100.00
1776;BME280;885;42.626;23.200;2023-04-09T05:46:55;166686.63;;;5.68;100.00
1776;BME280;885;42.626;23.200;2023-04-09T05:49:22;166707.22;;;5.75;100.00
1776;BME280;885;42.626;23.200;2023-04-09T05:51:49;166694.84;;;5.71;100.00
1776;BME280;885;42.626;23.200;2023-04-09T05:54:16;166712.72;;;5.77;100.00
1776;BME280;885;42.626;23.200;2023-04-09T05:56:43;166696.22;;;5.71;100.00
1776;BME280;885;42.626;23.200;2023-04-09T05:59:11;166567.06;;;5.24;100.00
1776;BME280;885;42.626;23.200;2023-04-09T06:01:38;166582.22;;;5.29;100.00
1776;BME280;885;42.626;23.200;2023-04-09T06:04:05;166600.06;;;5.36;100.00
1776;BME280;885;42.626;23.200;2023-04-09T06:06:31;166630.25;;;5.47;100.00
1776;BME280;885;42.626;23.200;2023-04-09T06:08:58;166627.53;;;5.46;100.00
1776;BME280;885;42.626;23.200;2023-04-09T06:11:25;166657.78;;;5.57;100.00
1776;BME280;885;42.626;23.200;2023-04-09T06:13:52;166634.41;;;5.48;100.00
1776;BME280;885;42.626;23.200;2023-04-09T06:16:20;166633.03;;;5.48;100.00
1776;BME280;885;42.626;23.200;2023-04-09T06:18:47;166678.38;;;5.64;100.00
1776;BME280;885;42.626;23.200;2023-04-09T06:21:15;166752.63;;;5.92;100.00
1776;BME280;885;42.626;23.200;2023-04-09T06:23:43;166859.81;;;6.31;100.00
1776;BME280;885;42.626;23.200;2023-04-09T06:26:10;166906.56;;;6.48;100.00
1776;BME280;885;42.626;23.200;2023-04-09T06:28:36;167072.94;;;7.09;100.00
1776;BME280;885;42.626;23.200;2023-04-09T06:31:03;167114.22;;;7.24;100.00
1776;BME280;885;42.626;23.200;2023-04-09T06:33:31;167167.84;;;7.44;100.00
1776;BME280;885;42.626;23.200;2023-04-09T06:35:58;167174.75;;;7.46;100.00
1776;BME280;885;42.626;23.200;2023-04-09T06:38:25;167235.31;;;7.68;100.00
1776;BME280;885;42.626;23.200;2023-04-09T06:40:51;167251.81;;;7.74;100.00
1776;BME280;885;42.626;23.200;2023-04-09T06:43:18;167279.34;;;7.84;100.00
1776;BME280;885;42.626;23.200;2023-04-09T06:45:45;167304.13;;;7.93;100.00
1776;BME280;885;42.626;23.200;2023-04-09T06:48:11;167342.66;;;8.08;100.00
1776;BME280;885;42.626;23.200;2023-04-09T06:50:40;167356.44;;;8.13;100.00
1776;BME280;885;42.626;23.200;2023-04-09T06:53:06;167312.34;;;7.96;100.00
1776;BME280;885;42.626;23.200;2023-04-09T06:55:33;167334.38;;;8.04;100.00
1776;BME280;885;42.626;23.200;2023-04-09T06:58:00;167298.63;;;7.91;100.00
1776;BME280;885;42.626;23.200;2023-04-09T07:00:27;167360.56;;;8.14;100.00
1776;BME280;885;42.626;23.200;2023-04-09T07:02:54;167400.53;;;8.29;100.00
1776;BME280;885;42.626;23.200;2023-04-09T07:05:21;167429.44;;;8.39;100.00
1776;BME280;885;42.626;23.200;2023-04-09T07:07:49;167468.00;;;8.53;100.00
1776;BME280;885;42.626;23.200;2023-04-09T07:10:16;167483.13;;;8.59;100.00
1776;BME280;885;42.626;23.200;2023-04-09T07:12:43;167360.56;;;8.14;100.00
1776;BME280;885;42.626;23.200;2023-04-09T07:15:10;167485.91;;;8.60;100.00
1776;BME280;885;42.626;23.200;2023-04-09T07:17:36;167601.59;;;9.02;100.00
1776;BME280;885;42.626;23.200;2023-04-09T07:20:04;167640.16;;;9.16;100.00
1776;BME280;885;42.626;23.200;2023-04-09T07:22:31;167655.31;;;9.22;100.00
1776;BME280;885;42.626;23.200;2023-04-09T07:24:59;167656.69;;;9.22;100.00
1776;BME280;885;42.626;23.200;2023-04-09T07:27:26;167692.53;;;9.35;100.00
1776;BME280;885;42.626;23.200;2023-04-09T07:29:54;167707.66;;;9.41;99.58
1776;BME280;885;42.626;23.200;2023-04-09T07:32:21;167648.47;;;9.19;99.26
1776;BME280;885;42.626;23.200;2023-04-09T07:34:50;167575.41;;;8.93;99.52
1776;BME280;885;42.626;23.200;2023-04-09T07:37:16;167494.13;;;8.63;100.00
1776;BME280;885;42.626;23.200;2023-04-09T07:39:43;167485.91;;;8.60;100.00
1776;BME280;885;42.626;23.200;2023-04-09T07:42:12;167458.38;;;8.50;100.00
1776;BME280;885;42.626;23.200;2023-04-09T07:44:39;167370.19;;;8.18;100.00
1776;BME280;885;42.626;23.200;2023-04-09T07:47:06;167295.84;;;7.90;100.00
1776;BME280;885;42.626;23.200;2023-04-09T07:49:34;167159.63;;;7.41;100.00
1776;BME280;885;42.626;23.200;2023-04-09T07:52:01;167172.03;;;7.45;100.00
1776;BME280;885;42.626;23.200;2023-04-09T07:54:28;167232.53;;;7.67;100.00
1776;BME280;885;42.626;23.200;2023-04-09T07:56:55;167199.53;;;7.55;100.00
1776;BME280;885;42.626;23.200;2023-04-09T07:59:24;167158.25;;;7.40;100.00
1776;BME280;885;42.626;23.200;2023-04-09T08:01:52;167235.31;;;7.68;100.00
1776;BME280;885;42.626;23.200;2023-04-09T08:04:19;167137.63;;;7.33;100.00
1776;BME280;885;42.626;23.200;2023-04-09T08:06:46;167216.03;;;7.61;100.00
1776;BME280;885;42.626;23.200;2023-04-09T08:09:15;167231.16;;;7.67;100.00
1776;BME280;885;42.626;23.200;2023-04-09T08:11:42;167284.84;;;7.86;100.00
1776;BME280;885;42.626;23.200;2023-04-09T08:14:10;167268.34;;;7.80;100.00
1776;BME280;885;42.626;23.200;2023-04-09T08:16:38;167360.56;;;8.14;100.00
1776;BME280;885;42.626;23.200;2023-04-09T08:19:06;167396.41;;;8.27;100.00
1776;BME280;885;42.626;23.200;2023-04-09T08:21:35;167407.44;;;8.31;100.00
1776;BME280;885;42.626;23.200;2023-04-09T08:24:02;167302.75;;;7.93;100.00
1776;BME280;885;42.626;23.200;2023-04-09T08:26:30;167298.63;;;7.91;100.00
1776;BME280;885;42.626;23.200;2023-04-09T08:28:57;167337.16;;;8.06;100.00
1776;BME280;885;42.626;23.200;2023-04-09T08:31:23;167476.28;;;8.56;100.00
1776;BME280;885;42.626;23.200;2023-04-09T08:33:52;167659.47;;;9.23;100.00
1776;BME280;885;42.626;23.200;2023-04-09T08:36:18;167754.53;;;9.58;94.07
1776;BME280;885;42.626;23.200;2023-04-09T08:38:45;167835.88;;;9.88;90.75
1776;BME280;885;42.626;23.200;2023-04-09T08:41:16;167920.00;;;10.18;89.48
1776;BME280;885;42.626;23.200;2023-04-09T08:43:45;167804.13;;;9.76;84.51
1776;BME280;885;42.626;23.200;2023-04-09T08:46:13;167608.50;;;9.05;89.35
1776;BME280;885;42.626;23.200;2023-04-09T08:48:42;167629.16;;;9.12;89.94
1776;BME280;885;42.626;23.200;2023-04-09T08:51:13;167706.34;;;9.40;88.40
1776;BME280;885;42.626;23.200;2023-04-09T08:53:42;167764.16;;;9.61;84.97
1776;BME280;885;42.626;23.200;2023-04-09T08:56:10;167842.75;;;9.90;86.53
1776;BME280;885;42.626;23.200;2023-04-09T08:58:43;167914.47;;;10.16;87.39
1776;BME280;885;42.626;23.200;2023-04-09T09:01:20;167987.56;;;10.43;87.31
1776;BME280;885;42.626;23.200;2023-04-09T09:03:53;167987.56;;;10.43;84.10
1776;BME280;885;42.626;23.200;2023-04-09T09:06:23;167995.84;;;10.46;84.05
1776;BME280;885;42.626;23.200;2023-04-09T09:09:04;167868.94;;;10.00;83.57
1776;BME280;885;42.626;23.200;2023-04-09T09:11:32;167928.28;;;10.21;83.12
1776;BME280;885;42.626;23.200;2023-04-09T09:14:00;168033.13;;;10.60;82.29
1776;BME280;885;42.626;23.200;2023-04-09T09:16:28;168122.75;;;10.92;80.15
1776;BME280;885;42.626;23.200;2023-04-09T09:18:56;168193.13;;;11.18;80.75
1776;BME280;885;42.626;23.200;2023-04-09T09:21:26;168211.06;;;11.25;82.88
1776;BME280;885;42.626;23.200;2023-04-09T09:23:53;168211.06;;;11.25;82.11
1776;BME280;885;42.626;23.200;2023-04-09T09:26:21;168226.22;;;11.30;80.98
1776;BME280;885;42.626;23.200;2023-04-09T09:28:49;168144.81;;;11.00;81.70
1776;BME280;885;42.626;23.200;2023-04-09T09:31:18;168188.94;;;11.16;81.88
1776;BME280;885;42.626;23.200;2023-04-09T09:33:45;168219.31;;;11.28;82.58
1776;BME280;885;42.626;23.200;2023-04-09T09:36:12;168216.59;;;11.27;79.72
1776;BME280;885;42.626;23.200;2023-04-09T09:38:55;168212.41;;;11.25;83.17
1776;BME280;885;42.626;23.200;2023-04-09T09:41:22;168235.88;;;11.34;82.14
1776;BME280;885;42.626;23.200;2023-04-09T09:43:50;168186.22;;;11.15;80.05
1776;BME280;885;42.626;23.200;2023-04-09T09:46:18;168135.16;;;10.97;79.73
1776;BME280;885;42.626;23.200;2023-04-09T09:48:46;168056.50;;;10.68;80.91
1776;BME280;885;42.626;23.200;2023-04-09T09:51:14;168045.47;;;10.64;81.55
1776;BME280;885;42.626;23.200;2023-04-09T09:53:43;168045.47;;;10.64;82.37
1776;BME280;885;42.626;23.200;2023-04-09T09:56:14;168023.41;;;10.56;83.75
1776;BME280;885;42.626;23.200;2023-04-09T09:58:44;168024.81;;;10.57;84.39
1776;BME280;885;42.626;23.200;2023-04-09T10:01:16;168015.16;;;10.53;82.31
1776;BME280;885;42.626;23.200;2023-04-09T10:03:45;168033.13;;;10.60;83.33
1776;BME280;885;42.626;23.200;2023-04-09T10:06:13;168017.91;;;10.54;83.10
1776;BME280;885;42.626;23.200;2023-04-09T10:08:41;167976.53;;;10.39;85.15
1776;BME280;885;42.626;23.200;2023-04-09T10:11:08;168001.34;;;10.48;83.41
1776;BME280;885;42.626;23.200;2023-04-09T10:13:39;168048.25;;;10.65;83.51
1776;BME280;885;42.626;23.200;2023-04-09T10:16:06;168042.75;;;10.63;83.47
1776;BME280;885;42.626;23.200;2023-04-09T10:18:33;168095.16;;;10.82;84.08
1776;BME280;885;42.626;23.200;2023-04-09T10:21:02;168136.56;;;10.97;80.54
1776;BME280;885;42.626;23.200;2023-04-09T10:23:34;168133.78;;;10.96;79.92
1776;BME280;885;42.626;23.200;2023-04-09T10:26:03;168148.94;;;11.02;80.84
1776;BME280;885;42.626;23.200;2023-04-09T10:28:30;168124.16;;;10.93;81.31
1776;BME280;885;42.626;23.200;2023-04-09T10:30:59;168147.59;;;11.01;81.55
1776;BME280;885;42.626;23.200;2023-04-09T10:33:26;168143.41;;;11.00;80.79
1776;BME280;885;42.626;23.200;2023-04-09T10:35:54;168106.19;;;10.86;80.58
1776;BME280;885;42.626;23.200;2023-04-09T10:38:32;168039.97;;;10.62;82.87
1776;BME280;885;42.626;23.200;2023-04-09T10:41:06;167954.47;;;10.31;83.93
1776;BME280;885;42.626;23.200;2023-04-09T10:43:35;167926.91;;;10.21;87.43
1776;BME280;885;42.626;23.200;2023-04-09T10:46:08;167906.25;;;10.13;88.80
1776;BME280;885;42.626;23.200;2023-04-09T10:49:06;167855.19;;;9.95;93.89
1776;BME280;885;42.626;23.200;2023-04-09T10:51:34;167816.53;;;9.81;94.33
1776;BME280;885;42.626;23.200;2023-04-09T10:54:03;167777.97;;;9.67;93.97
1776;BME280;885;42.626;23.200;2023-04-09T10:56:29;167760.03;;;9.60;97.44
1776;BME280;885;42.626;23.200;2023-04-09T10:58:56;167720.09;;;9.45;100.00
1776;BME280;885;42.626;23.200;2023-04-09T11:01:24;167729.72;;;9.49;100.00
1776;BME280;885;42.626;23.200;2023-04-09T11:04:07;167710.44;;;9.42;100.00
1776;BME280;885;42.626;23.200;2023-04-09T11:06:35;167713.19;;;9.43;100.00
1776;BME280;885;42.626;23.200;2023-04-09T11:09:02;167641.56;;;9.17;100.00
1776;BME280;885;42.626;23.200;2023-04-09T11:11:29;167629.16;;;9.12;100.00
1776;BME280;885;42.626;23.200;2023-04-09T11:13:58;167634.66;;;9.14;100.00
1776;BME280;885;42.626;23.200;2023-04-09T11:16:28;167660.81;;;9.24;100.00
1776;BME280;885;42.626;23.200;2023-04-09T11:18:55;167669.09;;;9.27;100.00
1776;BME280;885;42.626;23.200;2023-04-09T11:21:26;167703.56;;;9.39;100.00
1776;BME280;885;42.626;23.200;2023-04-09T11:23:53;167764.16;;;9.61;100.00
1776;BME280;885;42.626;23.200;2023-04-09T11:26:22;167846.88;;;9.92;100.00
1776;BME280;885;42.626;23.200;2023-04-09T11:28:49;167899.34;;;10.11;100.00
1776;BME280;885;42.626;23.200;2023-04-09T11:31:16;167961.38;;;10.33;100.00
1776;BME280;885;42.626;23.200;2023-04-09T11:33:46;167982.03;;;10.41;97.29
1776;BME280;885;42.626;23.200;2023-04-09T11:36:13;167995.84;;;10.46;100.00
1776;BME280;885;42.626;23.200;2023-04-09T11:38:40;168070.31;;;10.73;100.00
1776;BME280;885;42.626;23.200;2023-04-09T11:41:07;168133.78;;;10.96;96.05
1776;BME280;885;42.626;23.200;2023-04-09T11:43:37;168191.72;;;11.17;92.77
1776;BME280;885;42.626;23.200;2023-04-09T11:46:04;168241.41;;;11.36;92.67
1776;BME280;885;42.626;23.200;2023-04-09T11:48:33;168274.56;;;11.48;90.11
1776;BME280;885;42.626;23.200;2023-04-09T11:51:01;168295.25;;;11.55;90.84
1776;BME280;885;42.626;23.200;2023-04-09T11:53:29;168324.22;;;11.66;89.78
1776;BME280;885;42.626;23.200;2023-04-09T11:55:56;168315.91;;;11.63;88.94
1776;BME280;885;42.626;23.200;2023-04-09T11:58:24;168321.44;;;11.65;87.67
1776;BME280;885;42.626;23.200;2023-04-09T12:00:53;168271.78;;;11.47;86.66
1776;BME280;885;42.626;23.200;2023-04-09T12:03:27;168184.81;;;11.15;87.87
1776;BME280;885;42.626;23.200;2023-04-09T12:05:54;168125.47;;;10.93;91.45
1776;BME280;885;42.626;23.200;2023-04-09T12:08:23;168070.31;;;10.73;93.40
1776;BME280;885;42.626;23.200;2023-04-09T12:10:50;167997.25;;;10.47;93.58
1776;BME280;885;42.626;23.200;2023-04-09T12:13:18;167969.66;;;10.36;93.05
1776;BME280;885;42.626;23.200;2023-04-09T12:15:47;167940.72;;;10.26;94.14
1776;BME280;885;42.626;23.200;2023-04-09T12:18:14;167947.56;;;10.28;93.51
1776;BME280;885;42.626;23.200;2023-04-09T12:20:42;167964.16;;;10.34;93.75
1776;BME280;885;42.626;23.200;2023-04-09T12:23:09;168006.88;;;10.50;93.78
1776;BME280;885;42.626;23.200;2023-04-09T12:25:39;168037.22;;;10.61;93.80
1776;BME280;885;42.626;23.200;2023-04-09T12:28:08;168051.00;;;10.66;93.97
1776;BME280;885;42.626;23.200;2023-04-09T12:30:35;168017.91;;;10.54;96.02
1776;BME280;885;42.626;23.200;2023-04-09T12:33:02;167980.69;;;10.41;95.91
1776;BME280;885;42.626;23.200;2023-04-09T12:35:29;167762.81;;;9.61;94.69
1776;BME280;885;42.626;23.200;2023-04-09T12:37:56;167775.19;;;9.66;97.11
1776;BME280;885;42.626;23.200;2023-04-09T12:40:24;167751.81;;;9.57;98.16
1776;BME280;885;42.626;23.200;2023-04-09T12:42:52;167764.16;;;9.61;100.00
1776;BME280;885;42.626;23.200;2023-04-09T12:45:20;167740.72;;;9.53;100.00
1776;BME280;885;42.626;23.200;2023-04-09T12:47:47;167543.75;;;8.81;100.00
1776;BME280;885;42.626;23.200;2023-04-09T12:50:14;167569.91;;;8.91;100.00
1776;BME280;885;42.626;23.200;2023-04-09T12:52:41;167547.88;;;8.82;100.00
1776;BME280;885;42.626;23.200;2023-04-09T12:55:09;167501.03;;;8.65;100.00
1776;BME280;885;42.626;23.200;2023-04-09T12:57:37;167513.44;;;8.70;100.00
1776;BME280;885;42.626;23.200;2023-04-09T13:00:06;167513.44;;;8.70;100.00
1776;BME280;885;42.626;23.200;2023-04-09T13:02:34;167428.06;;;8.39;100.00
1776;BME280;885;42.626;23.200;2023-04-09T13:05:01;167447.34;;;8.46;100.00
1776;BME280;885;42.626;23.200;2023-04-09T13:07:28;167361.94;;;8.15;100.00
1776;BME280;885;42.626;23.200;2023-04-09T13:09:56;167381.19;;;8.22;100.00
1776;BME280;885;42.626;23.200;2023-04-09T13:12:23;167408.78;;;8.32;100.00
1776;BME280;885;42.626;23.200;2023-04-09T13:14:52;167353.66;;;8.12;100.00
1776;BME280;885;42.626;23.200;2023-04-09T13:17:21;167415.66;;;8.34;100.00